sensor_id;sensor_type;location;lat;lon;timestamp;P1;durP1;ratioP1;P2;durP2;ratioP2
4448;SDS011;2237;51.870;6.160;2022-11-20T00:01:07;20.25;;;8.10;;
4448;SDS011;2237;51.870;6.160;2022-11-20T00:03:38;24.30;;;8.65;;
4448;SDS011;2237;51.870;6.160;2022-11-20T00:06:06;22.02;;;9.23;;
4448;SDS011;2237;51.870;6.160;2022-11-20T00:08:34;23.52;;;9.52;;
4448;SDS011;2237;51.870;6.160;2022-11-20T00:11:11;24.77;;;8.93;;
4448;SDS011;2237;51.870;6.160;2022-11-20T00:13:45;20.17;;;7.90;;
4448;SDS011;2237;51.870;6.160;2022-11-20T00:18:39;14.25;;;6.85;;
4448;SDS011;2237;51.870;6.160;2022-11-20T00:21:07;18.52;;;7.82;;
4448;SDS011;2237;51.870;6.160;2022-11-20T00:23:36;17.98;;;7.47;;
4448;SDS011;2237;51.870;6.160;2022-11-20T00:26:03;16.77;;;7.80;;
4448;SDS011;2237;51.870;6.160;2022-11-20T00:28:31;20.45;;;8.35;;
4448;SDS011;2237;51.870;6.160;2022-11-20T00:31:05;19.40;;;7.90;;
4448;SDS011;2237;51.870;6.160;2022-11-20T00:33:34;19.33;;;8.38;;
4448;SDS011;2237;51.870;6.160;2022-11-20T00:36:04;22.23;;;8.07;;
4448;SDS011;2237;51.870;6.160;2022-11-20T00:38:32;21.60;;;7.93;;
4448;SDS011;2237;51.870;6.160;2022-11-20T00:41:02;19.77;;;7.35;;
4448;SDS011;2237;51.870;6.160;2022-11-20T00:43:30;18.52;;;7.57;;
4448;SDS011;2237;51.870;6.160;2022-11-20T00:45:57;21.92;;;7.97;;
4448;SDS011;2237;51.870;6.160;2022-11-20T00:48:27;20.63;;;7.70;;
4448;SDS011;2237;51.870;6.160;2022-11-20T00:50:54;14.90;;;6.65;;
4448;SDS011;2237;51.870;6.160;2022-11-20T00:53:21;15.52;;;7.85;;
4448;SDS011;2237;51.870;6.160;2022-11-20T00:58:34;16.48;;;7.22;;
4448;SDS011;2237;51.870;6.160;2022-11-20T01:01:06;18.02;;;7.75;;
4448;SDS011;2237;51.870;6.160;2022-11-20T01:03:45;19.02;;;7.53;;
4448;SDS011;2237;51.870;6.160;2022-11-20T01:06:14;19.17;;;7.70;;
4448;SDS011;2237;51.870;6.160;2022-11-20T01:08:42;17.02;;;7.55;;
4448;SDS011;2237;51.870;6.160;2022-11-20T01:11:10;14.40;;;6.60;;
4448;SDS011;2237;51.870;6.160;2022-11-20T01:13:39;20.58;;;8.55;;
4448;SDS011;2237;51.870;6.160;2022-11-20T01:16:08;19.58;;;7.43;;
4448;SDS011;2237;51.870;6.160;2022-11-20T01:18:56;16.98;;;7.45;;
4448;SDS011;2237;51.870;6.160;2022-11-20T01:21:28;19.25;;;7.53;;
4448;SDS011;2237;51.870;6.160;2022-11-20T01:23:56;20.52;;;8.02;;
4448;SDS011;2237;51.870;6.160;2022-11-20T01:26:25;17.92;;;7.88;;
4448;SDS011;2237;51.870;6.160;2022-11-20T01:28:54;18.70;;;7.60;;
4448;SDS011;2237;51.870;6.160;2022-11-20T01:31:23;18.15;;;7.90;;
4448;SDS011;2237;51.870;6.160;2022-11-20T01:33:52;18.67;;;7.25;;
4448;SDS011;2237;51.870;6.160;2022-11-20T01:36:21;15.98;;;6.65;;
4448;SDS011;2237;51.870;6.160;2022-11-20T01:38:54;14.35;;;7.05;;
4448;SDS011;2237;51.870;6.160;2022-11-20T01:41:22;15.95;;;6.63;;
4448;SDS011;2237;51.870;6.160;2022-11-20T01:44:08;15.75;;;6.70;;
4448;SDS011;2237;51.870;6.160;2022-11-20T01:46:42;17.23;;;6.68;;
4448;SDS011;2237;51.870;6.160;2022-11-20T01:49:22;20.23;;;7.72;;
4448;SDS011;2237;51.870;6.160;2022-11-20T01:51:55;16.83;;;6.93;;
4448;SDS011;2237;51.870;6.160;2022-11-20T01:54:30;15.52;;;6.85;;
4448;SDS011;2237;51.870;6.160;2022-11-20T01:57:02;18.95;;;7.57;;
4448;SDS011;2237;51.870;6.160;2022-11-20T01:59:33;18.92;;;7.90;;
4448;SDS011;2237;51.870;6.160;2022-11-20T02:01:59;16.90;;;7.30;;
4448;SDS011;2237;51.870;6.160;2022-11-20T02:04:26;16.50;;;6.63;;
4448;SDS011;2237;51.870;6.160;2022-11-20T02:06:54;19.63;;;7.75;;
4448;SDS011;2237;51.870;6.160;2022-11-20T02:09:25;17.13;;;7.60;;
4448;SDS011;2237;51.870;6.160;2022-11-20T02:11:52;20.42;;;7.82;;
4448;SDS011;2237;51.870;6.160;2022-11-20T02:14:19;17.73;;;7.88;;
4448;SDS011;2237;51.870;6.160;2022-11-20T02:16:47;18.58;;;8.20;;
4448;SDS011;2237;51.870;6.160;2022-11-20T02:22:11;19.48;;;7.80;;
4448;SDS011;2237;51.870;6.160;2022-11-20T02:24:44;20.52;;;7.38;;
4448;SDS011;2237;51.870;6.160;2022-11-20T02:27:13;18.92;;;7.75;;
4448;SDS011;2237;51.870;6.160;2022-11-20T02:34:45;20.83;;;7.70;;
4448;SDS011;2237;51.870;6.160;2022-11-20T02:37:11;21.95;;;9.13;;
4448;SDS011;2237;51.870;6.160;2022-11-20T02:39:38;17.52;;;8.02;;
4448;SDS011;2237;51.870;6.160;2022-11-20T02:42:06;17.20;;;7.45;;
4448;SDS011;2237;51.870;6.160;2022-11-20T02:44:32;18.58;;;8.30;;
4448;SDS011;2237;51.870;6.160;2022-11-20T02:46:58;19.25;;;7.80;;
4448;SDS011;2237;51.870;6.160;2022-11-20T02:49:25;17.95;;;7.78;;
4448;SDS011;2237;51.870;6.160;2022-11-20T02:51:51;21.35;;;7.68;;
4448;SDS011;2237;51.870;6.160;2022-11-20T02:54:18;17.10;;;7.72;;
4448;SDS011;2237;51.870;6.160;2022-11-20T02:56:44;16.30;;;6.72;;
4448;SDS011;2237;51.870;6.160;2022-11-20T02:59:10;18.85;;;7.63;;
4448;SDS011;2237;51.870;6.160;2022-11-20T03:01:37;16.77;;;7.55;;
4448;SDS011;2237;51.870;6.160;2022-11-20T03:04:03;18.25;;;6.85;;
4448;SDS011;2237;51.870;6.160;2022-11-20T03:06:30;16.60;;;7.40;;
4448;SDS011;2237;51.870;6.160;2022-11-20T03:08:56;16.98;;;7.20;;
4448;SDS011;2237;51.870;6.160;2022-11-20T03:11:22;16.88;;;7.32;;
4448;SDS011;2237;51.870;6.160;2022-11-20T03:13:49;15.70;;;6.70;;
4448;SDS011;2237;51.870;6.160;2022-11-20T03:16:16;16.15;;;7.38;;
4448;SDS011;2237;51.870;6.160;2022-11-20T03:18:46;17.55;;;6.97;;
4448;SDS011;2237;51.870;6.160;2022-11-20T03:21:13;16.80;;;7.28;;
4448;SDS011;2237;51.870;6.160;2022-11-20T03:23:40;14.68;;;6.45;;
4448;SDS011;2237;51.870;6.160;2022-11-20T03:26:08;16.63;;;6.35;;
4448;SDS011;2237;51.870;6.160;2022-11-20T03:28:35;16.73;;;6.55;;
4448;SDS011;2237;51.870;6.160;2022-11-20T03:31:09;15.57;;;6.70;;
4448;SDS011;2237;51.870;6.160;2022-11-20T03:33:38;15.48;;;6.97;;
4448;SDS011;2237;51.870;6.160;2022-11-20T03:36:06;15.18;;;6.63;;
4448;SDS011;2237;51.870;6.160;2022-11-20T03:38:34;15.63;;;6.88;;
4448;SDS011;2237;51.870;6.160;2022-11-20T03:41:02;17.90;;;6.65;;
4448;SDS011;2237;51.870;6.160;2022-11-20T03:43:31;13.75;;;6.28;;
4448;SDS011;2237;51.870;6.160;2022-11-20T03:45:58;13.52;;;6.18;;
4448;SDS011;2237;51.870;6.160;2022-11-20T03:48:25;16.83;;;6.82;;
4448;SDS011;2237;51.870;6.160;2022-11-20T03:50:52;16.77;;;6.85;;
4448;SDS011;2237;51.870;6.160;2022-11-20T03:53:31;13.23;;;5.40;;
4448;SDS011;2237;51.870;6.160;2022-11-20T03:55:58;15.98;;;6.25;;
4448;SDS011;2237;51.870;6.160;2022-11-20T03:58:24;15.85;;;5.90;;
4448;SDS011;2237;51.870;6.160;2022-11-20T04:00:50;16.25;;;6.05;;
4448;SDS011;2237;51.870;6.160;2022-11-20T04:03:17;18.52;;;7.80;;
4448;SDS011;2237;51.870;6.160;2022-11-20T04:05:43;15.30;;;6.25;;
4448;SDS011;2237;51.870;6.160;2022-11-20T04:08:10;15.68;;;6.50;;
4448;SDS011;2237;51.870;6.160;2022-11-20T04:10:36;17.80;;;6.68;;
4448;SDS011;2237;51.870;6.160;2022-11-20T04:13:02;14.13;;;6.15;;
4448;SDS011;2237;51.870;6.160;2022-11-20T04:15:29;17.20;;;7.18;;
4448;SDS011;2237;51.870;6.160;2022-11-20T04:18:02;14.85;;;6.03;;
4448;SDS011;2237;51.870;6.160;2022-11-20T04:20:28;15.75;;;6.88;;
4448;SDS011;2237;51.870;6.160;2022-11-20T04:22:54;14.80;;;6.55;;
4448;SDS011;2237;51.870;6.160;2022-11-20T04:25:21;15.15;;;6.35;;
4448;SDS011;2237;51.870;6.160;2022-11-20T04:27:47;15.30;;;6.53;;
4448;SDS011;2237;51.870;6.160;2022-11-20T04:30:13;17.48;;;7.13;;
4448;SDS011;2237;51.870;6.160;2022-11-20T04:32:40;17.75;;;6.50;;
4448;SDS011;2237;51.870;6.160;2022-11-20T04:35:06;16.38;;;7.13;;
4448;SDS011;2237;51.870;6.160;2022-11-20T04:37:33;18.90;;;7.50;;
4448;SDS011;2237;51.870;6.160;2022-11-20T04:39:59;15.73;;;6.85;;
4448;SDS011;2237;51.870;6.160;2022-11-20T04:42:26;14.77;;;6.53;;
4448;SDS011;2237;51.870;6.160;2022-11-20T04:44:55;16.65;;;6.80;;
4448;SDS011;2237;51.870;6.160;2022-11-20T04:47:24;16.42;;;7.40;;
4448;SDS011;2237;51.870;6.160;2022-11-20T04:50:19;15.73;;;6.60;;
4448;SDS011;2237;51.870;6.160;2022-11-20T04:52:46;15.05;;;7.07;;
4448;SDS011;2237;51.870;6.160;2022-11-20T04:55:12;17.70;;;6.85;;
4448;SDS011;2237;51.870;6.160;2022-11-20T04:57:38;15.88;;;6.72;;
4448;SDS011;2237;51.870;6.160;2022-11-20T05:00:05;15.15;;;6.22;;
4448;SDS011;2237;51.870;6.160;2022-11-20T05:02:32;16.95;;;6.60;;
4448;SDS011;2237;51.870;6.160;2022-11-20T05:04:58;18.02;;;7.78;;
4448;SDS011;2237;51.870;6.160;2022-11-20T05:07:24;15.88;;;6.30;;
4448;SDS011;2237;51.870;6.160;2022-11-20T05:09:51;16.92;;;7.35;;
4448;SDS011;2237;51.870;6.160;2022-11-20T05:12:17;14.52;;;7.07;;
4448;SDS011;2237;51.870;6.160;2022-11-20T05:14:43;16.85;;;6.43;;
4448;SDS011;2237;51.870;6.160;2022-11-20T05:17:11;18.33;;;7.13;;
4448;SDS011;2237;51.870;6.160;2022-11-20T05:19:38;18.13;;;6.80;;
4448;SDS011;2237;51.870;6.160;2022-11-20T05:22:04;17.08;;;6.97;;
4448;SDS011;2237;51.870;6.160;2022-11-20T05:24:31;17.67;;;7.30;;
4448;SDS011;2237;51.870;6.160;2022-11-20T05:26:57;18.33;;;7.45;;
4448;SDS011;2237;51.870;6.160;2022-11-20T05:29:23;23.08;;;7.57;;
4448;SDS011;2237;51.870;6.160;2022-11-20T05:31:50;17.48;;;7.18;;
4448;SDS011;2237;51.870;6.160;2022-11-20T05:34:16;22.08;;;7.72;;
4448;SDS011;2237;51.870;6.160;2022-11-20T05:36:42;13.70;;;6.40;;
4448;SDS011;2237;51.870;6.160;2022-11-20T05:39:09;21.23;;;6.93;;
4448;SDS011;2237;51.870;6.160;2022-11-20T05:41:35;17.38;;;7.53;;
4448;SDS011;2237;51.870;6.160;2022-11-20T05:44:02;19.13;;;8.15;;
4448;SDS011;2237;51.870;6.160;2022-11-20T05:46:28;18.80;;;7.90;;
4448;SDS011;2237;51.870;6.160;2022-11-20T05:48:55;18.10;;;7.22;;
4448;SDS011;2237;51.870;6.160;2022-11-20T05:51:22;20.55;;;7.85;;
4448;SDS011;2237;51.870;6.160;2022-11-20T05:53:49;18.85;;;7.72;;
4448;SDS011;2237;51.870;6.160;2022-11-20T05:56:17;18.65;;;7.75;;
4448;SDS011;2237;51.870;6.160;2022-11-20T05:58:45;15.68;;;6.85;;
4448;SDS011;2237;51.870;6.160;2022-11-20T06:01:16;23.20;;;8.32;;
4448;SDS011;2237;51.870;6.160;2022-11-20T06:03:45;19.02;;;7.63;;
4448;SDS011;2237;51.870;6.160;2022-11-20T06:06:12;19.30;;;7.68;;
4448;SDS011;2237;51.870;6.160;2022-11-20T06:08:39;19.10;;;7.63;;
4448;SDS011;2237;51.870;6.160;2022-11-20T06:11:06;15.57;;;6.68;;
4448;SDS011;2237;51.870;6.160;2022-11-20T06:13:34;17.52;;;7.60;;
4448;SDS011;2237;51.870;6.160;2022-11-20T06:16:06;17.02;;;7.45;;
4448;SDS011;2237;51.870;6.160;2022-11-20T06:18:33;16.08;;;7.03;;
4448;SDS011;2237;51.870;6.160;2022-11-20T06:21:03;20.90;;;7.22;;
4448;SDS011;2237;51.870;6.160;2022-11-20T06:23:32;17.70;;;7.30;;
4448;SDS011;2237;51.870;6.160;2022-11-20T06:26:03;16.48;;;6.97;;
4448;SDS011;2237;51.870;6.160;2022-11-20T06:28:31;19.58;;;7.05;;
4448;SDS011;2237;51.870;6.160;2022-11-20T06:30:58;15.30;;;7.03;;
4448;SDS011;2237;51.870;6.160;2022-11-20T06:33:24;18.35;;;7.70;;
4448;SDS011;2237;51.870;6.160;2022-11-20T06:35:51;19.55;;;8.00;;
4448;SDS011;2237;51.870;6.160;2022-11-20T06:38:25;20.42;;;8.32;;
4448;SDS011;2237;51.870;6.160;2022-11-20T06:40:52;19.92;;;7.70;;
4448;SDS011;2237;51.870;6.160;2022-11-20T06:43:19;18.25;;;7.50;;
4448;SDS011;2237;51.870;6.160;2022-11-20T06:45:46;14.52;;;6.78;;
4448;SDS011;2237;51.870;6.160;2022-11-20T06:48:12;18.65;;;8.95;;
4448;SDS011;2237;51.870;6.160;2022-11-20T06:50:38;18.25;;;7.38;;
4448;SDS011;2237;51.870;6.160;2022-11-20T06:53:05;19.15;;;7.97;;
4448;SDS011;2237;51.870;6.160;2022-11-20T06:55:31;16.63;;;7.78;;
4448;SDS011;2237;51.870;6.160;2022-11-20T06:57:58;17.15;;;7.43;;
4448;SDS011;2237;51.870;6.160;2022-11-20T07:00:24;19.00;;;8.18;;
4448;SDS011;2237;51.870;6.160;2022-11-20T07:02:51;18.42;;;7.85;;
4448;SDS011;2237;51.870;6.160;2022-11-20T07:05:17;17.88;;;7.55;;
4448;SDS011;2237;51.870;6.160;2022-11-20T07:07:43;18.83;;;7.47;;
4448;SDS011;2237;51.870;6.160;2022-11-20T07:10:10;17.58;;;7.15;;
4448;SDS011;2237;51.870;6.160;2022-11-20T07:12:36;15.38;;;7.18;;
4448;SDS011;2237;51.870;6.160;2022-11-20T07:15:03;18.88;;;7.82;;
4448;SDS011;2237;51.870;6.160;2022-11-20T07:17:29;17.75;;;7.20;;
4448;SDS011;2237;51.870;6.160;2022-11-20T07:19:56;15.05;;;7.20;;
4448;SDS011;2237;51.870;6.160;2022-11-20T07:22:22;16.58;;;8.10;;
4448;SDS011;2237;51.870;6.160;2022-11-20T07:24:48;19.75;;;7.78;;
4448;SDS011;2237;51.870;6.160;2022-11-20T07:27:15;17.02;;;6.72;;
4448;SDS011;2237;51.870;6.160;2022-11-20T07:29:41;19.75;;;8.48;;
4448;SDS011;2237;51.870;6.160;2022-11-20T07:32:07;17.13;;;8.00;;
4448;SDS011;2237;51.870;6.160;2022-11-20T07:34:34;18.73;;;7.88;;
4448;SDS011;2237;51.870;6.160;2022-11-20T07:37:00;19.63;;;7.90;;
4448;SDS011;2237;51.870;6.160;2022-11-20T07:39:34;17.75;;;8.02;;
4448;SDS011;2237;51.870;6.160;2022-11-20T07:42:00;20.45;;;7.63;;
4448;SDS011;2237;51.870;6.160;2022-11-20T07:44:26;16.75;;;7.57;;
4448;SDS011;2237;51.870;6.160;2022-11-20T07:46:53;20.92;;;8.15;;
4448;SDS011;2237;51.870;6.160;2022-11-20T07:49:19;16.63;;;7.18;;
4448;SDS011;2237;51.870;6.160;2022-11-20T07:51:46;16.10;;;7.68;;
4448;SDS011;2237;51.870;6.160;2022-11-20T07:54:17;19.63;;;8.43;;
4448;SDS011;2237;51.870;6.160;2022-11-20T07:56:43;20.13;;;8.60;;
4448;SDS011;2237;51.870;6.160;2022-11-20T07:59:09;20.38;;;8.70;;
4448;SDS011;2237;51.870;6.160;2022-11-20T08:01:38;23.92;;;9.80;;
4448;SDS011;2237;51.870;6.160;2022-11-20T08:04:05;27.10;;;11.80;;
4448;SDS011;2237;51.870;6.160;2022-11-20T08:06:32;32.72;;;12.85;;
4448;SDS011;2237;51.870;6.160;2022-11-20T08:08:58;31.77;;;13.90;;
4448;SDS011;2237;51.870;6.160;2022-11-20T08:11:25;29.98;;;13.05;;
4448;SDS011;2237;51.870;6.160;2022-11-20T08:14:10;23.77;;;10.82;;
4448;SDS011;2237;51.870;6.160;2022-11-20T08:16:46;27.45;;;11.50;;
4448;SDS011;2237;51.870;6.160;2022-11-20T08:19:14;30.80;;;13.80;;
4448;SDS011;2237;51.870;6.160;2022-11-20T08:21:42;29.58;;;13.45;;
4448;SDS011;2237;51.870;6.160;2022-11-20T08:24:10;26.70;;;11.07;;
4448;SDS011;2237;51.870;6.160;2022-11-20T08:26:37;23.75;;;10.43;;
4448;SDS011;2237;51.870;6.160;2022-11-20T08:29:04;20.67;;;9.68;;
4448;SDS011;2237;51.870;6.160;2022-11-20T08:31:31;25.80;;;10.05;;
4448;SDS011;2237;51.870;6.160;2022-11-20T08:33:58;20.13;;;9.77;;
4448;SDS011;2237;51.870;6.160;2022-11-20T08:36:25;22.70;;;10.25;;
4448;SDS011;2237;51.870;6.160;2022-11-20T08:38:53;23.30;;;10.02;;
4448;SDS011;2237;51.870;6.160;2022-11-20T08:41:20;21.13;;;10.02;;
4448;SDS011;2237;51.870;6.160;2022-11-20T08:43:55;25.65;;;10.68;;
4448;SDS011;2237;51.870;6.160;2022-11-20T08:46:24;25.60;;;10.75;;
4448;SDS011;2237;51.870;6.160;2022-11-20T08:48:53;32.45;;;11.57;;
4448;SDS011;2237;51.870;6.160;2022-11-20T08:51:20;28.45;;;11.75;;
4448;SDS011;2237;51.870;6.160;2022-11-20T08:53:46;22.98;;;10.07;;
4448;SDS011;2237;51.870;6.160;2022-11-20T08:56:15;23.80;;;10.65;;
4448;SDS011;2237;51.870;6.160;2022-11-20T08:58:42;25.83;;;10.88;;
4448;SDS011;2237;51.870;6.160;2022-11-20T09:01:29;26.38;;;11.32;;
4448;SDS011;2237;51.870;6.160;2022-11-20T09:03:56;24.65;;;10.85;;
4448;SDS011;2237;51.870;6.160;2022-11-20T09:06:23;22.45;;;10.48;;
4448;SDS011;2237;51.870;6.160;2022-11-20T09:08:52;25.95;;;10.38;;
4448;SDS011;2237;51.870;6.160;2022-11-20T09:11:20;26.30;;;11.82;;
4448;SDS011;2237;51.870;6.160;2022-11-20T09:13:47;35.35;;;13.98;;
4448;SDS011;2237;51.870;6.160;2022-11-20T09:16:14;38.63;;;14.63;;
4448;SDS011;2237;51.870;6.160;2022-11-20T09:18:40;32.50;;;14.32;;
4448;SDS011;2237;51.870;6.160;2022-11-20T19:42:17;48.15;;;18.27;;
4448;SDS011;2237;51.870;6.160;2022-11-20T19:44:44;55.35;;;20.25;;
4448;SDS011;2237;51.870;6.160;2022-11-20T19:47:10;51.47;;;19.45;;
4448;SDS011;2237;51.870;6.160;2022-11-20T19:49:40;52.67;;;21.45;;
4448;SDS011;2237;51.870;6.160;2022-11-20T19:52:06;61.28;;;22.52;;
4448;SDS011;2237;51.870;6.160;2022-11-20T19:54:33;56.13;;;20.08;;
4448;SDS011;2237;51.870;6.160;2022-11-20T19:56:59;59.13;;;19.02;;
4448;SDS011;2237;51.870;6.160;2022-11-20T19:59:25;52.83;;;18.38;;
4448;SDS011;2237;51.870;6.160;2022-11-20T20:01:52;43.90;;;16.58;;
4448;SDS011;2237;51.870;6.160;2022-11-20T20:04:18;47.28;;;18.83;;
4448;SDS011;2237;51.870;6.160;2022-11-20T20:06:44;46.13;;;18.85;;
4448;SDS011;2237;51.870;6.160;2022-11-20T20:09:11;49.28;;;20.52;;
4448;SDS011;2237;51.870;6.160;2022-11-20T20:11:39;50.38;;;18.52;;
4448;SDS011;2237;51.870;6.160;2022-11-20T20:14:06;45.17;;;17.88;;
4448;SDS011;2237;51.870;6.160;2022-11-20T20:16:35;43.70;;;17.48;;
4448;SDS011;2237;51.870;6.160;2022-11-20T20:19:02;47.35;;;17.98;;
4448;SDS011;2237;51.870;6.160;2022-11-20T20:21:31;42.28;;;17.52;;
4448;SDS011;2237;51.870;6.160;2022-11-20T20:23:58;39.95;;;17.42;;
4448;SDS011;2237;51.870;6.160;2022-11-20T20:26:26;39.33;;;16.65;;
4448;SDS011;2237;51.870;6.160;2022-11-20T20:28:55;44.10;;;16.98;;
4448;SDS011;2237;51.870;6.160;2022-11-20T20:31:22;45.17;;;17.45;;
4448;SDS011;2237;51.870;6.160;2022-11-20T20:33:50;43.33;;;17.10;;
4448;SDS011;2237;51.870;6.160;2022-11-20T20:36:17;42.33;;;16.48;;
4448;SDS011;2237;51.870;6.160;2022-11-20T20:38:44;45.67;;;17.58;;
4448;SDS011;2237;51.870;6.160;2022-11-20T20:41:12;41.22;;;16.67;;
4448;SDS011;2237;51.870;6.160;2022-11-20T20:43:39;40.42;;;17.73;;
4448;SDS011;2237;51.870;6.160;2022-11-20T20:46:24;38.10;;;14.93;;
4448;SDS011;2237;51.870;6.160;2022-11-20T20:48:50;39.35;;;17.27;;
4448;SDS011;2237;51.870;6.160;2022-11-20T20:51:20;43.42;;;17.55;;
4448;SDS011;2237;51.870;6.160;2022-11-20T20:53:46;43.90;;;18.48;;
4448;SDS011;2237;51.870;6.160;2022-11-20T20:56:13;41.90;;;18.17;;
4448;SDS011;2237;51.870;6.160;2022-11-20T20:58:40;44.75;;;18.48;;
4448;SDS011;2237;51.870;6.160;2022-11-20T21:01:07;44.58;;;17.85;;
4448;SDS011;2237;51.870;6.160;2022-11-20T21:03:39;42.33;;;18.05;;
4448;SDS011;2237;51.870;6.160;2022-11-20T21:06:06;40.25;;;16.88;;
4448;SDS011;2237;51.870;6.160;2022-11-20T21:08:34;44.63;;;17.70;;
4448;SDS011;2237;51.870;6.160;2022-11-20T21:11:06;44.75;;;17.65;;
4448;SDS011;2237;51.870;6.160;2022-11-20T21:13:38;42.25;;;17.95;;
4448;SDS011;2237;51.870;6.160;2022-11-20T21:16:05;48.05;;;18.42;;
4448;SDS011;2237;51.870;6.160;2022-11-20T21:18:32;41.53;;;18.17;;
4448;SDS011;2237;51.870;6.160;2022-11-20T21:20:59;40.53;;;17.33;;
4448;SDS011;2237;51.870;6.160;2022-11-20T21:23:44;47.65;;;19.00;;
4448;SDS011;2237;51.870;6.160;2022-11-20T21:26:12;43.30;;;18.30;;
4448;SDS011;2237;51.870;6.160;2022-11-20T21:28:41;38.60;;;17.77;;
4448;SDS011;2237;51.870;6.160;2022-11-20T21:31:41;51.70;;;19.88;;
4448;SDS011;2237;51.870;6.160;2022-11-20T21:34:00;43.67;;;16.45;;
4448;SDS011;2237;51.870;6.160;2022-11-20T21:36:28;45.90;;;17.63;;
4448;SDS011;2237;51.870;6.160;2022-11-20T21:38:56;43.65;;;17.45;;
4448;SDS011;2237;51.870;6.160;2022-11-20T21:41:27;46.47;;;19.08;;
4448;SDS011;2237;51.870;6.160;2022-11-20T21:43:55;44.20;;;18.08;;
4448;SDS011;2237;51.870;6.160;2022-11-20T21:46:44;48.33;;;19.05;;
4448;SDS011;2237;51.870;6.160;2022-11-20T21:49:11;46.58;;;18.65;;
4448;SDS011;2237;51.870;6.160;2022-11-20T21:51:39;49.38;;;17.52;;
4448;SDS011;2237;51.870;6.160;2022-11-20T21:54:05;43.03;;;18.05;;
4448;SDS011;2237;51.870;6.160;2022-11-20T21:56:32;43.25;;;18.48;;
4448;SDS011;2237;51.870;6.160;2022-11-20T21:58:58;51.33;;;19.58;;
4448;SDS011;2237;51.870;6.160;2022-11-20T22:01:26;45.83;;;18.98;;
4448;SDS011;2237;51.870;6.160;2022-11-20T22:03:56;48.13;;;18.88;;
4448;SDS011;2237;51.870;6.160;2022-11-20T22:06:25;51.55;;;19.15;;
4448;SDS011;2237;51.870;6.160;2022-11-20T22:08:54;47.92;;;20.13;;
4448;SDS011;2237;51.870;6.160;2022-11-20T22:11:20;47.95;;;19.13;;
4448;SDS011;2237;51.870;6.160;2022-11-20T22:13:47;49.25;;;20.35;;
4448;SDS011;2237;51.870;6.160;2022-11-20T22:16:33;47.63;;;20.15;;
4448;SDS011;2237;51.870;6.160;2022-11-20T22:19:00;45.58;;;18.60;;
4448;SDS011;2237;51.870;6.160;2022-11-20T22:21:27;51.35;;;20.42;;
4448;SDS011;2237;51.870;6.160;2022-11-20T22:23:55;42.70;;;19.02;;
4448;SDS011;2237;51.870;6.160;2022-11-20T22:26:23;43.00;;;18.38;;
4448;SDS011;2237;51.870;6.160;2022-11-20T22:28:51;46.40;;;18.60;;
4448;SDS011;2237;51.870;6.160;2022-11-20T22:31:19;42.65;;;18.08;;
4448;SDS011;2237;51.870;6.160;2022-11-20T22:33:47;48.75;;;18.58;;
4448;SDS011;2237;51.870;6.160;2022-11-20T22:36:15;45.90;;;18.00;;
4448;SDS011;2237;51.870;6.160;2022-11-20T22:38:49;56.00;;;22.85;;
4448;SDS011;2237;51.870;6.160;2022-11-20T22:41:17;49.50;;;19.52;;
4448;SDS011;2237;51.870;6.160;2022-11-20T22:43:45;38.88;;;17.95;;
4448;SDS011;2237;51.870;6.160;2022-11-20T22:46:13;46.40;;;17.92;;
4448;SDS011;2237;51.870;6.160;2022-11-20T22:48:42;45.03;;;18.42;;
4448;SDS011;2237;51.870;6.160;2022-11-20T22:51:13;42.25;;;18.50;;
4448;SDS011;2237;51.870;6.160;2022-11-20T22:53:42;44.38;;;18.77;;
4448;SDS011;2237;51.870;6.160;2022-11-20T22:56:10;44.72;;;16.80;;
4448;SDS011;2237;51.870;6.160;2022-11-20T22:58:38;40.03;;;16.70;;
4448;SDS011;2237;51.870;6.160;2022-11-20T23:01:09;43.47;;;17.60;;
4448;SDS011;2237;51.870;6.160;2022-11-20T23:03:37;41.85;;;17.95;;
4448;SDS011;2237;51.870;6.160;2022-11-20T23:06:05;39.28;;;16.63;;
4448;SDS011;2237;51.870;6.160;2022-11-20T23:08:32;40.88;;;17.48;;
4448;SDS011;2237;51.870;6.160;2022-11-20T23:11:03;39.65;;;16.52;;
4448;SDS011;2237;51.870;6.160;2022-11-20T23:13:31;43.10;;;17.63;;
4448;SDS011;2237;51.870;6.160;2022-11-20T23:16:05;39.13;;;16.58;;
4448;SDS011;2237;51.870;6.160;2022-11-20T23:18:36;43.25;;;17.73;;
4448;SDS011;2237;51.870;6.160;2022-11-20T23:21:12;39.90;;;16.80;;
4448;SDS011;2237;51.870;6.160;2022-11-20T23:23:41;39.97;;;15.73;;
4448;SDS011;2237;51.870;6.160;2022-11-20T23:26:09;39.10;;;15.85;;
4448;SDS011;2237;51.870;6.160;2022-11-20T23:28:37;39.05;;;16.40;;
4448;SDS011;2237;51.870;6.160;2022-11-20T23:31:04;35.92;;;16.77;;
4448;SDS011;2237;51.870;6.160;2022-11-20T23:33:35;39.72;;;17.50;;
4448;SDS011;2237;51.870;6.160;2022-11-20T23:36:02;47.05;;;17.67;;
4448;SDS011;2237;51.870;6.160;2022-11-20T23:38:29;39.55;;;17.02;;
4448;SDS011;2237;51.870;6.160;2022-11-20T23:40:56;40.80;;;16.13;;
4448;SDS011;2237;51.870;6.160;2022-11-20T23:43:23;37.92;;;16.48;;
4448;SDS011;2237;51.870;6.160;2022-11-20T23:45:50;43.40;;;15.55;;
4448;SDS011;2237;51.870;6.160;2022-11-20T23:48:19;40.17;;;17.13;;
4448;SDS011;2237;51.870;6.160;2022-11-20T23:50:47;37.88;;;16.13;;
4448;SDS011;2237;51.870;6.160;2022-11-20T23:53:13;37.28;;;16.13;;
4448;SDS011;2237;51.870;6.160;2022-11-20T23:55:44;42.17;;;16.88;;
